Time;durP1;ratioP1;P1;durP2;ratioP2;P2;SDS_P1;SDS_P2;PMS_P1;PMS_P2;Temp;Humidity;BMP_temperature;BMP_pressure;BME280_temperature;BME280_humidity;BME280_pressure;Samples;Min_cycle;Max_cycle;Signal;HPM_P1;HPM_P2
2022/11/12 00:02:19;;;;;;;3.92;0.90;;;;;;;13.54;100.00;100775.94;4961605;28;20531;-90
2022/11/12 00:05:23;;;;;;;3.92;0.90;;;;;;;13.53;100.00;100775.09;4947545;28;20082;-90
2022/11/12 00:12:57;;;;;;;2.92;0.80;;;;;;;13.57;100.00;100783.59;5002394;28;20068;-90
2022/11/12 00:16:10;;;;;;;4.13;0.52;;;;;;;13.54;100.00;100781.25;5005639;28;20129;-90
2022/11/12 00:19:19;;;;;;;4.15;0.68;;;;;;;13.58;100.00;100779.94;4995362;28;20038;-90
2022/11/12 00:22:38;;;;;;;5.72;0.90;;;;;;;13.55;100.00;100773.13;5010907;28;20036;-90
2022/11/12 00:25:29;;;;;;;5.82;0.73;;;;;;;13.56;100.00;100771.28;4982194;28;20566;-90
2022/11/12 00:28:15;;;;;;;2.92;0.73;;;;;;;13.58;100.00;100771.97;4997598;28;20041;-89
2022/11/12 00:31:06;;;;;;;1.70;0.50;;;;;;;13.59;100.00;100770.97;4989692;28;20133;-90
2022/11/12 00:33:50;;;;;;;2.85;0.75;;;;;;;13.57;100.00;100770.31;4995756;28;20045;-90
2022/11/12 00:36:35;;;;;;;2.75;0.50;;;;;;;13.57;100.00;100768.47;4987480;28;20041;-90
2022/11/12 00:39:19;;;;;;;4.32;0.75;;;;;;;13.58;100.00;100778.13;4996583;28;20112;-89
2022/11/12 00:42:03;;;;;;;2.00;0.60;;;;;;;13.57;100.00;100772.97;5002355;28;20026;-90
2022/11/12 00:44:48;;;;;;;2.60;0.60;;;;;;;13.58;100.00;100772.81;4988454;28;20125;-90
2022/11/12 00:47:32;;;;;;;1.60;0.40;;;;;;;13.58;100.00;100766.66;4998206;28;20045;-89
2022/11/12 00:50:17;;;;;;;2.50;0.60;;;;;;;13.60;100.00;100770.00;5011353;28;20053;-90
2022/11/12 00:53:01;;;;;;;5.28;0.60;;;;;;;13.60;100.00;100762.84;4997693;28;20120;-90
2022/11/12 00:55:46;;;;;;;2.38;0.30;;;;;;;13.61;100.00;100761.03;4996778;28;20133;-90
2022/11/12 00:58:32;;;;;;;2.15;0.43;;;;;;;13.66;100.00;100763.22;4998545;28;20038;-90
2022/11/12 01:01:16;;;;;;;1.08;0.20;;;;;;;13.64;100.00;100760.72;5019938;28;20052;-90
2022/11/12 01:04:01;;;;;;;0.88;0.15;;;;;;;13.66;100.00;100763.22;5029887;28;20045;-90
2022/11/12 01:06:45;;;;;;;1.40;0.43;;;;;;;13.64;100.00;100756.25;5042960;28;20037;-90
2022/11/12 01:09:29;;;;;;;5.65;0.40;;;;;;;13.65;100.00;100759.72;5047913;28;20025;-90
2022/11/12 01:12:14;;;;;;;2.42;0.38;;;;;;;13.68;100.00;100756.75;5036495;28;20030;-90
2022/11/12 01:14:58;;;;;;;4.72;0.40;;;;;;;13.67;100.00;100749.78;5051151;28;20064;-91
2022/11/12 01:17:42;;;;;;;7.95;0.70;;;;;;;13.70;100.00;100743.31;5029402;28;20036;-90
2022/11/12 01:20:27;;;;;;;5.07;1.00;;;;;;;13.68;100.00;100732.84;5048304;28;20095;-91
2022/11/12 01:23:11;;;;;;;10.10;1.48;;;;;;;13.71;100.00;100742.34;5063315;28;20159;-90
2022/11/12 01:25:56;;;;;;;6.23;1.20;;;;;;;13.72;100.00;100736.88;5030535;28;20095;-89
2022/11/12 01:28:41;;;;;;;11.88;1.38;;;;;;;13.68;100.00;100738.16;5035231;28;20467;-90
2022/11/12 01:31:30;;;;;;;13.23;1.95;;;;;;;13.68;100.00;100746.13;5034292;28;20097;-90
2022/11/12 01:34:15;;;;;;;12.23;2.22;;;;;;;13.64;100.00;100745.63;5054729;28;20043;-90
2022/11/12 01:36:59;;;;;;;15.75;2.00;;;;;;;13.64;100.00;100745.63;5052229;28;20119;-89
2022/11/12 01:39:44;;;;;;;13.15;2.08;;;;;;;13.63;100.00;100743.94;5065696;28;20029;-89
2022/11/12 01:42:31;;;;;;;14.75;2.28;;;;;;;13.65;100.00;100746.44;5061312;28;20029;-90
2022/11/12 01:45:15;;;;;;;15.90;2.45;;;;;;;13.64;100.00;100744.78;5021523;28;20505;-89
2022/11/12 01:48:01;;;;;;;19.38;2.80;;;;;;;13.60;100.00;100736.28;5034701;28;20486;-90
2022/11/12 01:50:45;;;;;;;16.75;2.00;;;;;;;13.57;100.00;100736.59;5034337;28;20068;-89
2022/11/12 01:53:35;;;;;;;24.52;2.95;;;;;;;13.59;100.00;100739.09;5048877;28;20037;-90
2022/11/12 01:56:22;;;;;;;25.40;3.30;;;;;;;13.58;100.00;100738.31;5028945;28;20037;-90
2022/11/12 01:59:13;;;;;;;17.73;2.33;;;;;;;13.57;100.00;100741.94;5051334;28;20025;-91
2022/11/12 02:01:58;;;;;;;20.88;3.50;;;;;;;13.56;100.00;100744.75;5046879;28;20540;-89
2022/11/12 02:04:44;;;;;;;23.55;3.00;;;;;;;13.57;100.00;100747.22;5059655;28;20046;-90
2022/11/12 02:07:29;;;;;;;17.13;3.03;;;;;;;13.58;100.00;100750.72;5057836;28;20505;-90
2022/11/12 02:10:14;;;;;;;10.85;2.00;;;;;;;13.60;100.00;100751.41;5039871;28;20025;-90
2022/11/12 02:16:03;;;;;;;13.85;2.47;;;;;;;13.62;100.00;100760.88;5049172;28;20041;-90
2022/11/12 02:18:48;;;;;;;;;;;;;;;13.58;100.00;100764.84;5028384;28;20048;-90
2022/11/12 02:21:33;;;;;;;15.73;2.03;;;;;;;13.64;100.00;100756.25;5041293;28;19913;-90
2022/11/12 02:24:17;;;;;;;16.40;2.40;;;;;;;13.67;100.00;100759.56;5049976;28;20508;-91
2022/11/12 02:27:04;;;;;;;18.27;3.65;;;;;;;13.71;100.00;100756.44;5028038;28;20037;-90
2022/11/12 02:29:48;;;;;;;;;;;;;;;13.64;100.00;100753.59;5046190;28;20075;-89
2022/11/12 02:32:32;;;;;;;19.95;3.67;;;;;;;13.66;100.00;100745.47;5030480;28;20016;-91
2022/11/12 02:35:16;;;;;;;15.13;2.50;;;;;;;13.70;100.00;100753.94;5034745;28;20041;-91
2022/11/12 02:38:02;;;;;;;21.35;3.25;;;;;;;13.72;100.00;100757.28;5051209;28;20045;-91
2022/11/12 02:40:47;;;;;;;14.85;2.75;;;;;;;13.71;100.00;100761.75;5032616;28;20041;-91
2022/11/12 02:43:31;;;;;;;13.25;1.98;;;;;;;13.73;100.00;100766.91;5043579;28;20045;-90
2022/11/12 02:46:16;;;;;;;20.05;3.45;;;;;;;13.73;100.00;100765.09;5040131;28;20033;-90
2022/11/12 02:49:00;;;;;;;22.30;3.92;;;;;;;13.75;100.00;100759.63;5051218;28;20037;-90
2022/11/12 02:51:45;;;;;;;17.08;2.63;;;;;;;13.73;100.00;100766.91;5039312;28;20497;-90
2022/11/12 02:54:29;;;;;;;26.17;3.30;;;;;;;13.72;100.00;100768.75;5039589;28;20037;-91
2022/11/12 02:57:14;;;;;;;23.17;3.50;;;;;;;13.71;100.00;100756.44;5047654;28;20120;-90
2022/11/12 02:59:58;;;;;;;18.33;3.03;;;;;;;13.73;100.00;100766.91;5051154;28;20049;-89
2022/11/12 03:02:57;;;;;;;15.00;2.20;;;;;;;13.71;100.00;100769.72;5039169;28;20029;-89
2022/11/12 03:05:41;;;;;;;16.63;2.75;;;;;;;13.70;100.00;100765.41;5028498;28;20588;-89
2022/11/12 03:08:26;;;;;;;18.17;2.73;;;;;;;13.70;100.00;100769.88;5053364;28;20025;-90
2022/11/12 03:11:14;;;;;;;18.80;3.05;;;;;;;13.73;100.00;100777.53;5055677;28;20462;-90
2022/11/12 03:14:00;;;;;;;18.75;3.30;;;;;;;13.73;100.00;100773.06;5043040;28;20034;-91
2022/11/12 03:16:45;;;;;;;20.85;2.90;;;;;;;13.72;100.00;100763.44;5040895;28;20091;-89
2022/11/12 03:19:29;;;;;;;19.45;2.75;;;;;;;13.71;100.00;100769.72;5037225;28;20569;-88
2022/11/12 03:22:14;;;;;;;14.05;2.28;;;;;;;13.71;100.00;100760.94;5045218;28;20452;-90
2022/11/12 03:24:58;;;;;;;14.48;3.10;;;;;;;13.71;100.00;100761.75;5042653;28;20068;-90
2022/11/12 03:27:43;;;;;;;19.02;2.55;;;;;;;13.69;100.00;100739.84;5047090;28;20128;-88
2022/11/12 03:30:29;;;;;;;23.10;2.90;;;;;;;13.69;100.00;100744.31;5052096;28;20029;-91
2022/11/12 03:33:14;;;;;;;23.50;3.42;;;;;;;13.67;100.00;100741.81;5042812;28;20041;-89
2022/11/12 03:35:58;;;;;;;19.45;3.00;;;;;;;13.64;100.00;100728.84;5052445;28;20025;-90
2022/11/12 03:38:43;;;;;;;11.73;3.65;;;;;;;13.62;100.00;100734.31;5048853;28;20028;-87
2022/11/12 03:41:27;;;;;;;25.83;3.13;;;;;;;13.59;100.00;100725.84;5047357;28;20821;-91
2022/11/12 03:44:11;;;;;;;13.63;2.13;;;;;;;13.57;100.00;100720.69;5035700;28;20123;-90
2022/11/12 03:46:55;;;;;;;15.55;2.88;;;;;;;13.55;100.00;100721.84;5046635;28;20033;-91
2022/11/12 03:49:40;;;;;;;13.13;2.45;;;;;;;13.54;100.00;100723.66;5034239;28;20535;-89
2022/11/12 03:52:24;;;;;;;18.85;2.85;;;;;;;13.50;100.00;100727.59;5039248;28;20029;-90
2022/11/12 03:55:08;;;;;;;13.95;1.67;;;;;;;13.47;100.00;100717.28;5040506;28;20048;-90
2022/11/12 03:57:54;;;;;;;14.00;1.83;;;;;;;13.49;100.00;100732.06;5037440;28;20036;-90
2022/11/12 04:00:38;;;;;;;12.02;2.15;;;;;;;13.47;100.00;100725.25;5036409;28;20055;-90
2022/11/12 04:03:24;;;;;;;14.07;1.88;;;;;;;13.44;100.00;100726.38;5026446;28;20033;-90
2022/11/12 04:09:11;;;;;;;12.52;2.08;;;;;;;13.44;100.00;100730.88;5064293;28;20060;-91
2022/11/12 04:13:26;;;;;;;14.70;2.17;;;;;;;13.42;100.00;100724.88;5033148;28;20117;-92
2022/11/12 04:15:01;;;;;;;8.80;1.35;;;;;;;13.39;100.00;100716.22;5062526;28;20067;-90
2022/11/12 04:23:52;;;;;;;6.57;1.58;;;;;;;13.37;100.00;100710.25;5051506;28;20041;-90
2022/11/12 04:26:36;;;;;;;8.25;1.52;;;;;;;13.37;100.00;100720.88;5042008;28;20033;-89
2022/11/12 04:32:24;;;;;;;14.00;1.90;;;;;;;13.35;100.00;100720.19;5061139;28;20068;-89
2022/11/12 04:35:08;;;;;;;11.68;1.67;;;;;;;13.40;100.00;100720.56;5029913;28;20520;-89
2022/11/12 04:37:53;;;;;;;13.50;1.88;;;;;;;13.42;100.00;100725.72;5021420;28;20037;-89
2022/11/12 04:46:43;;;;;;;15.93;1.98;;;;;;;13.45;100.00;100730.72;5046468;28;20029;-89
2022/11/12 04:49:27;;;;;;;17.83;3.00;;;;;;;13.47;100.00;100735.88;5043072;28;20033;-91
2022/11/12 04:52:12;;;;;;;15.00;2.78;;;;;;;13.46;100.00;100740.34;5038195;28;20475;-90
2022/11/12 04:54:57;;;;;;;11.20;2.40;;;;;;;13.50;100.00;100746.19;5033806;28;20127;-89
2022/11/12 04:57:41;;;;;;;18.23;2.78;;;;;;;13.51;100.00;100737.25;5035363;28;20032;-90
2022/11/12 05:00:25;;;;;;;12.25;2.05;;;;;;;13.49;100.00;100740.03;5021222;28;20061;-90
2022/11/12 05:03:10;;;;;;;14.00;2.55;;;;;;;13.48;100.00;100734.88;5032223;28;20119;-89
2022/11/12 05:06:01;;;;;;;15.35;2.25;;;;;;;13.50;100.00;100740.88;5022919;28;20037;-90
2022/11/12 05:08:45;;;;;;;17.38;2.83;;;;;;;13.46;100.00;100731.53;5047629;28;20036;-90
2022/11/12 05:11:29;;;;;;;19.85;2.67;;;;;;;13.47;100.00;100738.53;5029423;28;20593;-91
2022/11/12 05:14:13;;;;;;;19.27;3.30;;;;;;;13.42;100.00;100733.69;5037230;28;20037;-92
2022/11/12 05:16:58;;;;;;;12.90;2.38;;;;;;;13.43;100.00;100729.19;5030593;28;20124;-91
2022/11/12 05:19:42;;;;;;;18.20;2.85;;;;;;;13.41;100.00;100721.38;5050965;28;20025;-90
2022/11/12 05:22:26;;;;;;;12.52;2.22;;;;;;;13.37;100.00;100720.88;5044112;28;20037;-92
2022/11/12 05:25:10;;;;;;;12.10;2.33;;;;;;;13.36;100.00;100719.19;5044922;28;20033;-91
2022/11/12 05:27:54;;;;;;;11.93;2.00;;;;;;;13.35;100.00;100720.19;5038794;28;20874;-91
2022/11/12 05:30:39;;;;;;;13.13;1.90;;;;;;;13.37;100.00;100720.88;5048295;28;20033;-91
2022/11/12 05:33:23;;;;;;;16.48;2.85;;;;;;;13.36;100.00;100718.38;5040448;28;20028;-90
2022/11/12 05:36:07;;;;;;;16.80;2.78;;;;;;;13.34;100.00;100713.22;5049999;28;20022;-92
2022/11/12 05:38:51;;;;;;;12.73;2.17;;;;;;;13.31;100.00;100710.88;5045466;28;20040;-90
2022/11/12 05:41:36;;;;;;;12.48;2.38;;;;;;;13.33;100.00;100718.69;5051005;28;20025;-91
2022/11/12 05:44:21;;;;;;;17.75;2.58;;;;;;;13.33;100.00;100716.84;5030954;28;20125;-89
2022/11/12 05:47:05;;;;;;;16.17;2.92;;;;;;;13.34;100.00;100709.72;5041750;28;20037;-90
2022/11/12 05:49:49;;;;;;;14.57;2.22;;;;;;;13.33;100.00;100711.53;5036004;28;20041;-86
2022/11/12 05:52:33;;;;;;;11.68;2.50;;;;;;;13.32;100.00;100717.00;5037602;28;20033;-84
2022/11/12 05:55:17;;;;;;;11.63;2.17;;;;;;;13.29;100.00;100710.19;5031358;28;20052;-85
2022/11/12 05:58:05;;;;;;;12.05;2.15;;;;;;;13.32;100.00;100707.22;5040563;28;20037;-87
2022/11/12 06:00:49;;;;;;;16.67;2.85;;;;;;;13.30;100.00;100708.38;5051911;28;20136;-87
2022/11/12 06:03:33;;;;;;;13.88;2.53;;;;;;;13.28;100.00;100701.38;5038501;28;20397;-88
2022/11/12 06:06:17;;;;;;;15.70;1.92;;;;;;;13.27;100.00;100706.84;5053017;28;20029;-88
2022/11/12 06:09:02;;;;;;;20.38;2.70;;;;;;;13.25;100.00;100695.59;5046160;28;20036;-88
2022/11/12 06:11:46;;;;;;;11.82;1.95;;;;;;;13.26;100.00;100706.03;5047239;28;20037;-88
2022/11/12 06:14:30;;;;;;;13.15;1.85;;;;;;;13.25;100.00;100698.22;5043388;28;20040;-87
2022/11/12 06:17:14;;;;;;;12.88;2.20;;;;;;;13.25;100.00;100696.38;5047980;28;20060;-88
2022/11/12 06:19:58;;;;;;;12.68;2.15;;;;;;;13.24;100.00;100693.91;5050295;28;20039;-87
2022/11/12 06:22:42;;;;;;;14.35;2.47;;;;;;;13.20;100.00;100698.69;5051101;28;20025;-87
2022/11/12 06:25:27;;;;;;;10.35;1.92;;;;;;;13.22;100.00;100702.00;5051296;28;20032;-87
2022/11/12 06:28:11;;;;;;;14.68;2.00;;;;;;;13.20;100.00;100690.75;5047316;28;20064;-87
2022/11/12 06:30:56;;;;;;;14.63;2.45;;;;;;;13.23;100.00;100702.84;5051936;28;20040;-86
2022/11/12 06:33:42;;;;;;;16.30;2.28;;;;;;;13.23;100.00;100700.19;5036201;28;20048;-87
2022/11/12 06:36:27;;;;;;;16.95;2.33;;;;;;;13.19;100.00;100697.00;5041595;28;20436;-88
2022/11/12 06:39:11;;;;;;;13.73;2.78;;;;;;;13.20;100.00;100698.69;5031137;28;20053;-87
2022/11/12 06:41:55;;;;;;;9.60;1.83;;;;;;;13.17;100.00;100698.97;5058204;28;20032;-88
2022/11/12 06:44:39;;;;;;;15.07;2.38;;;;;;;13.18;100.00;100698.00;5050328;28;20371;-88
2022/11/12 06:47:24;;;;;;;20.02;2.85;;;;;;;13.21;100.00;100697.72;5056202;28;20029;-87
2022/11/12 06:50:08;;;;;;;20.05;2.28;;;;;;;13.18;100.00;100694.53;5038897;28;20034;-87
2022/11/12 06:52:57;;;;;;;12.20;2.10;;;;;;;13.16;100.00;100692.03;5054860;28;20033;-87
2022/11/12 06:55:42;;;;;;;14.52;2.40;;;;;;;13.15;100.00;100700.97;5036219;28;20500;-86
2022/11/12 06:58:26;;;;;;;9.93;2.10;;;;;;;13.11;100.00;100681.88;5050868;28;20178;-86
2022/11/12 07:01:15;;;;;;;17.20;2.83;;;;;;;13.10;100.00;100680.22;5028968;28;20122;-86
2022/11/12 07:03:59;;;;;;;15.45;2.60;;;;;;;13.05;100.00;100693.09;5034795;28;20056;-87
2022/11/12 07:06:44;;;;;;;19.90;2.92;;;;;;;13.05;100.00;100697.56;5055100;28;20052;-86
2022/11/12 07:09:28;;;;;;;12.75;2.10;;;;;;;13.03;100.00;100695.06;5039345;28;20037;-87
2022/11/12 07:12:12;;;;;;;17.02;2.72;;;;;;;13.03;100.00;100698.56;5050529;28;20025;-87
2022/11/12 07:14:56;;;;;;;15.50;2.50;;;;;;;13.05;100.00;100701.06;5026919;28;20100;-86
2022/11/12 07:17:44;;;;;;;15.82;2.72;;;;;;;13.04;100.00;100699.41;5038835;28;20033;-86
2022/11/12 07:20:28;;;;;;;8.35;2.22;;;;;;;13.05;100.00;100713.50;5039882;28;20374;-87
2022/11/12 07:23:12;;;;;;;19.05;2.72;;;;;;;13.06;100.00;100715.19;5046578;28;20034;-87
2022/11/12 07:26:03;;;;;;;18.80;2.92;;;;;;;13.10;100.00;100714.72;5056533;28;20040;-87
2022/11/12 07:28:49;;;;;;;9.73;1.75;;;;;;;13.12;100.00;100725.19;5049833;28;20083;-86
2022/11/12 07:31:34;;;;;;;9.43;1.90;;;;;;;13.12;100.00;100718.03;5046589;28;20033;-88
2022/11/12 07:34:18;;;;;;;9.32;2.05;;;;;;;13.13;100.00;100718.88;5046387;28;20075;-88
2022/11/12 07:37:02;;;;;;;19.30;2.05;;;;;;;13.15;100.00;100733.66;5048293;28;20044;-87
2022/11/12 07:39:46;;;;;;;13.15;1.83;;;;;;;13.15;100.00;100736.28;5046272;28;20509;-87
2022/11/12 07:42:34;;;;;;;12.68;2.08;;;;;;;13.19;100.00;100728.88;5034421;28;20062;-87
2022/11/12 07:45:19;;;;;;;9.43;1.98;;;;;;;13.17;100.00;100737.97;5033807;28;20475;-86
2022/11/12 07:48:03;;;;;;;10.18;1.75;;;;;;;13.15;100.00;100733.66;5035393;28;20440;-88
2022/11/12 07:50:47;;;;;;;10.63;1.70;;;;;;;13.14;100.00;100739.94;5056102;28;20044;-89
2022/11/12 07:53:32;;;;;;;12.10;2.00;;;;;;;13.15;100.00;100744.25;5027194;28;20041;-88
2022/11/12 07:56:19;;;;;;;13.48;2.38;;;;;;;13.14;100.00;100745.25;5048768;28;20498;-88
2022/11/12 07:59:03;;;;;;;12.07;1.92;;;;;;;13.13;100.00;100754.22;5053374;28;20036;-88
2022/11/12 08:01:47;;;;;;;11.45;2.15;;;;;;;13.11;100.00;100753.53;5046358;28;20051;-87
2022/11/12 08:04:31;;;;;;;8.43;1.83;;;;;;;13.10;100.00;100748.38;5030731;28;20025;-88
2022/11/12 08:07:15;;;;;;;10.48;1.98;;;;;;;13.09;100.00;100752.03;5044697;28;20084;-89
2022/11/12 08:09:59;;;;;;;12.45;1.85;;;;;;;13.07;100.00;100751.34;5035233;28;20044;-89
2022/11/12 08:12:43;;;;;;;11.00;1.67;;;;;;;13.05;100.00;100762.09;5048227;28;20086;-88
2022/11/12 08:15:27;;;;;;;16.30;2.85;;;;;;;12.99;100.00;100763.56;5032004;28;20112;-88
2022/11/12 08:18:12;;;;;;;12.60;2.08;;;;;;;13.00;100.00;100767.03;5052995;28;20069;-88
2022/11/12 08:21:01;;;;;;;10.40;1.98;;;;;;;12.98;100.00;100767.19;5036093;28;20499;-88
2022/11/12 08:23:45;;;;;;;15.35;2.97;;;;;;;12.98;100.00;100777.78;5050058;28;20083;-88
2022/11/12 08:26:29;;;;;;;19.67;3.08;;;;;;;12.95;100.00;100774.63;5042322;28;20047;-87
2022/11/12 08:29:15;;;;;;;17.45;2.90;;;;;;;12.93;100.00;100781.91;5034105;28;20025;-87
2022/11/12 08:32:00;;;;;;;15.88;2.80;;;;;;;12.93;100.00;100776.59;5034674;28;20036;-87
2022/11/12 08:34:45;;;;;;;22.77;3.20;;;;;;;12.94;100.00;100773.78;5034813;28;20025;-87
2022/11/12 08:37:29;;;;;;;23.70;3.60;;;;;;;12.91;100.00;100782.06;5048313;28;20028;-86
2022/11/12 08:40:13;;;;;;;17.42;3.47;;;;;;;12.90;100.00;100778.56;5053228;28;20037;-89
2022/11/12 08:42:59;;;;;;;29.38;3.95;;;;;;;12.90;100.00;100781.22;5049372;28;20033;-89
2022/11/12 08:45:43;;;;;;;23.83;3.58;;;;;;;12.84;100.00;100792.41;5048750;28;20478;-88
2022/11/12 08:48:29;;;;;;;21.50;3.47;;;;;;;12.78;100.00;100782.41;5044454;28;20054;-89
2022/11/12 08:51:14;;;;;;;21.42;4.15;;;;;;;12.76;100.00;100792.34;5047042;28;20056;-88
2022/11/12 08:53:58;;;;;;;18.65;4.60;;;;;;;12.74;100.00;100784.53;5054895;28;20378;-89
2022/11/12 08:56:42;;;;;;;19.58;3.20;;;;;;;12.71;100.00;100794.63;5045891;28;20094;-88
2022/11/12 08:59:26;;;;;;;16.48;2.83;;;;;;;12.68;100.00;100793.09;5059029;28;20036;-88
2022/11/12 09:02:12;;;;;;;14.27;2.75;;;;;;;12.66;100.00;100789.78;5033620;28;20032;-89
2022/11/12 09:04:57;;;;;;;24.00;3.08;;;;;;;12.63;100.00;100798.84;5046126;28;20398;-89
2022/11/12 09:07:41;;;;;;;20.60;3.20;;;;;;;12.62;100.00;100805.13;5052673;28;20128;-88
2022/11/12 09:10:26;;;;;;;25.15;3.30;;;;;;;12.61;100.00;100798.16;5050168;28;20029;-88
2022/11/12 09:13:11;;;;;;;10.98;2.42;;;;;;;12.60;100.00;100801.78;5051195;28;20091;-89
2022/11/12 09:16:03;;;;;;;23.15;3.05;;;;;;;12.53;100.00;100796.25;5037100;28;20032;-87
2022/11/12 09:18:47;;;;;;;15.90;2.38;;;;;;;12.53;100.00;100803.38;5049561;28;20032;-88
2022/11/12 09:21:32;;;;;;;17.08;3.20;;;;;;;12.52;100.00;100805.19;5043410;28;20041;-88
2022/11/12 09:24:16;;;;;;;14.02;2.80;;;;;;;12.49;100.00;100802.00;5039751;28;20036;-87
2022/11/12 09:27:00;;;;;;;13.95;2.95;;;;;;;12.45;100.00;100793.53;5031132;28;20160;-88
2022/11/12 09:29:45;;;;;;;25.23;3.75;;;;;;;12.48;100.00;100795.03;5032652;28;20029;-87
2022/11/12 09:32:29;;;;;;;21.98;3.88;;;;;;;12.47;100.00;100806.63;5042780;28;20078;-86
2022/11/12 09:35:14;;;;;;;21.08;3.75;;;;;;;12.42;100.00;100801.78;5036125;28;20430;-88
2022/11/12 09:37:58;;;;;;;13.85;3.03;;;;;;;12.40;100.00;100796.63;5054173;28;20381;-89
2022/11/12 09:40:46;;;;;;;22.05;3.35;;;;;;;12.41;100.00;100792.13;5064930;28;20041;-89
2022/11/12 09:43:32;;;;;;;21.17;3.53;;;;;;;12.39;100.00;100788.81;5028927;28;20132;-88
2022/11/12 09:46:34;;;;;;;18.52;3.10;;;;;;;12.35;100.00;100798.03;5035366;28;20036;-89
2022/11/12 09:49:35;;;;;;;14.68;3.03;;;;;;;12.39;100.00;100786.97;5059079;28;20036;-90
2022/11/12 09:52:26;;;;;;;17.70;3.35;;;;;;;12.39;100.00;100781.66;5036050;28;20054;-87
2022/11/12 09:55:10;;;;;;;22.90;3.63;;;;;;;12.37;100.00;100793.41;5047666;28;20036;-87
2022/11/12 09:57:55;;;;;;;13.27;3.03;;;;;;;12.42;100.00;100785.03;5032785;28;20041;-88
2022/11/12 10:00:56;;;;;;;16.00;3.30;;;;;;;12.44;100.00;100789.19;5028625;28;20049;-88
2022/11/12 10:03:55;;;;;;;13.90;3.35;;;;;;;12.47;100.00;100788.88;5045259;28;20029;-88
2022/11/12 10:07:01;;;;;;;21.67;3.75;;;;;;;12.46;100.00;100791.69;5039530;28;20041;-87
2022/11/12 10:10:01;;;;;;;15.45;3.47;;;;;;;12.42;100.00;100795.63;5036186;28;20118;-88
2022/11/12 10:13:16;;;;;;;19.08;3.60;;;;;;;12.43;100.00;100786.69;5039476;28;20124;-87
2022/11/12 10:19:35;;;;;;;14.93;3.30;;;;;;;12.45;100.00;100793.53;5038653;28;20104;-88
2022/11/12 10:22:51;;;;;;;11.82;2.75;;;;;;;12.47;100.00;100796.03;5037265;28;20051;-88
2022/11/12 10:25:37;;;;;;;14.75;3.60;;;;;;;12.48;100.00;100790.56;5058455;28;20034;-89
2022/11/12 10:28:33;;;;;;;11.52;3.00;;;;;;;12.54;100.00;100789.13;5025088;28;20033;-88
2022/11/12 10:31:20;;;;;;;20.63;5.20;;;;;;;12.53;100.00;100798.88;5031971;28;20038;-89
2022/11/12 10:34:16;;;;;;;19.48;3.42;;;;;;;12.53;100.00;100787.47;5032544;28;20044;-88
2022/11/12 10:37:03;;;;;;;17.85;4.47;;;;;;;12.53;100.00;100771.56;5034630;28;20041;-89
2022/11/12 10:39:48;;;;;;;18.25;3.30;;;;;;;12.54;100.00;100781.19;5032298;28;20560;-88
2022/11/12 10:42:33;;;;;;;19.88;3.50;;;;;;;12.56;100.00;100775.72;5032486;28;20047;-86
2022/11/12 10:45:20;;;;;;;14.30;3.22;;;;;;;12.59;100.00;100772.78;5030585;28;20045;-88
2022/11/12 10:48:21;;;;;;;20.95;4.00;;;;;;;12.61;100.00;100766.31;5048112;28;20037;-88
2022/11/12 10:51:28;;;;;;;12.60;3.65;;;;;;;12.63;100.00;100761.72;5034265;28;20070;-88
2022/11/12 10:54:27;;;;;;;19.17;3.63;;;;;;;12.63;100.00;100761.72;5052798;28;20469;-88
2022/11/12 10:57:26;;;;;;;16.48;3.45;;;;;;;12.68;100.00;100766.56;5033171;28;20043;-89
2022/11/12 11:00:17;;;;;;;18.00;3.83;;;;;;;12.67;100.00;100764.91;5035056;28;20131;-86
2022/11/12 11:03:18;;;;;;;17.10;3.60;;;;;;;12.69;100.00;100754.16;5062915;28;20033;-88
2022/11/12 11:06:17;;;;;;;19.17;3.83;;;;;;;12.68;100.00;100761.25;5029632;28;20432;-89
2022/11/12 11:09:28;;;;;;;10.73;2.45;;;;;;;12.69;100.00;100765.59;5036618;28;20037;-89
2022/11/12 11:12:26;;;;;;;12.38;3.70;;;;;;;12.68;100.00;100748.00;5048716;28;20043;-88
2022/11/12 11:15:22;;;;;;;17.05;3.38;;;;;;;12.70;100.00;100746.03;5027109;28;20482;-86
2022/11/12 11:18:11;;;;;;;14.43;3.33;;;;;;;12.68;100.00;100745.34;5044842;28;20127;-89
2022/11/12 11:21:08;;;;;;;17.25;3.85;;;;;;;12.70;100.00;100750.50;5034637;28;20473;-87
2022/11/12 11:24:06;;;;;;;14.45;3.60;;;;;;;12.72;100.00;100748.53;5052319;28;20694;-88
2022/11/12 11:27:02;;;;;;;18.58;4.05;;;;;;;12.73;100.00;100744.91;5039892;28;20417;-88
2022/11/12 11:30:04;;;;;;;14.30;3.88;;;;;;;12.77;100.00;100743.63;5047846;28;20731;-88
2022/11/12 11:33:12;;;;;;;24.05;4.50;;;;;;;12.84;100.00;100738.53;5032566;28;20120;-87
2022/11/12 11:36:23;;;;;;;20.65;4.10;;;;;;;12.89;100.00;100739.75;5048010;28;20033;-87
2022/11/12 11:39:46;;;;;;;20.02;4.25;;;;;;;12.94;100.00;100734.00;5050415;28;20045;-89
2022/11/12 11:42:37;;;;;;;14.25;3.63;;;;;;;12.95;100.00;100727.69;5045287;28;20553;-89
2022/11/12 11:45:48;;;;;;;16.58;4.00;;;;;;;12.97;100.00;100727.53;5038610;28;20039;-89
2022/11/12 11:48:57;;;;;;;15.40;4.00;;;;;;;13.03;100.00;100714.50;5025974;28;20038;-96
2022/11/12 11:52:19;;;;;;;22.15;4.57;;;;;;;13.10;100.00;100708.56;5049178;28;20479;-91
2022/11/12 11:55:19;;;;;;;16.48;4.28;;;;;;;13.12;100.00;100702.09;5032083;28;20045;-89
2022/11/12 11:58:21;;;;;;;18.25;4.82;;;;;;;13.15;100.00;100703.63;5028879;28;20106;-89
2022/11/12 12:01:24;;;;;;;13.32;4.25;;;;;;;13.12;100.00;100690.69;5063609;28;20059;-89
2022/11/12 12:04:46;;;;;;;18.00;4.13;;;;;;;13.14;100.00;100699.28;5049355;28;20028;-88
2022/11/12 12:07:51;;;;;;;19.70;4.80;;;;;;;13.15;100.00;100687.72;5048000;28;20478;-89
2022/11/12 12:10:47;;;;;;;17.75;3.88;;;;;;;13.19;100.00;100683.75;5035566;28;20037;-89
2022/11/12 12:13:40;;;;;;;17.23;3.85;;;;;;;13.23;100.00;100678.97;5027482;28;20132;-92
2022/11/12 12:17:02;;;;;;;15.50;3.80;;;;;;;13.22;100.00;100667.50;5032896;28;20041;-89
2022/11/12 12:20:15;;;;;;;15.43;3.30;;;;;;;13.19;100.00;100662.50;5042605;28;20041;-89
2022/11/12 12:23:09;;;;;;;12.07;3.67;;;;;;;13.15;100.00;100655.88;5055675;28;20033;-89
2022/11/12 12:25:57;;;;;;;16.00;4.28;;;;;;;13.14;100.00;100654.19;5048189;28;20119;-89
2022/11/12 12:28:50;;;;;;;11.77;3.25;;;;;;;13.18;100.00;100652.06;5046855;28;20160;-90
2022/11/12 12:31:43;;;;;;;12.05;3.40;;;;;;;13.22;100.00;100648.13;5033603;28;20095;-89
2022/11/12 12:34:38;;;;;;;11.68;3.47;;;;;;;13.25;100.00;100645.16;5042670;28;20044;-88
2022/11/12 12:37:42;;;;;;;10.70;3.15;;;;;;;13.21;100.00;100643.78;5027353;28;20048;-88
2022/11/12 12:40:48;;;;;;;14.02;3.33;;;;;;;13.18;100.00;100634.31;5020515;28;20021;-88
2022/11/12 12:43:44;;;;;;;19.42;3.80;;;;;;;13.17;100.00;100635.28;5035162;28;20079;-90
2022/11/12 12:46:31;;;;;;;14.77;3.67;;;;;;;13.15;100.00;100626.66;5031531;28;20481;-90
2022/11/12 12:49:22;;;;;;;19.85;4.35;;;;;;;13.17;100.00;100626.50;5027340;28;21475;-89
2022/11/12 12:52:14;;;;;;;13.48;3.28;;;;;;;13.21;100.00;100626.03;5031085;28;20052;-88
2022/11/12 12:54:59;;;;;;;12.88;3.35;;;;;;;13.20;100.00;100635.00;5041461;28;20765;-89
2022/11/12 12:57:44;;;;;;;8.18;2.85;;;;;;;13.23;100.00;100613.44;5048753;28;20092;-89
2022/11/12 13:00:36;;;;;;;17.27;4.72;;;;;;;13.31;100.00;100619.78;5030934;28;20134;-89
2022/11/12 13:03:45;;;;;;;12.55;3.10;;;;;;;13.26;100.00;100601.69;5027651;28;20094;-89
2022/11/12 13:06:31;;;;;;;16.08;3.38;;;;;;;13.26;100.00;100605.19;5040205;28;20120;-89
2022/11/12 13:09:16;;;;;;;;;;;;;;;13.12;100.00;100595.94;5037463;28;20045;-89
2022/11/12 13:15:12;;;;;;;11.77;3.60;;;;;;;13.22;100.00;100603.81;5051592;28;20040;-90
2022/11/12 13:17:56;;;;;;;15.38;4.25;;;;;;;13.21;100.00;100601.31;5040511;28;20044;-89
2022/11/12 13:20:41;;;;;;;16.58;4.07;;;;;;;13.22;100.00;100601.16;5044340;28;20040;-89
2022/11/12 13:24:07;;;;;;;13.43;4.28;;;;;;;13.19;100.00;100590.84;5029218;28;20041;-87